sensor_id;sensor_type;location;lat;lon;timestamp;temperature;humidity
44277;DHT22;29973;43.742;1.236;2022-08-03T00:01:58;18.60;99.90
44277;DHT22;29973;43.742;1.236;2022-08-03T00:04:24;18.50;99.90
44277;DHT22;29973;43.742;1.236;2022-08-03T00:06:50;18.60;99.90
44277;DHT22;29973;43.742;1.236;2022-08-03T00:09:15;18.50;99.90
44277;DHT22;29973;43.742;1.236;2022-08-03T00:11:41;18.50;99.90
44277;DHT22;29973;43.742;1.236;2022-08-03T00:14:07;18.50;99.90
44277;DHT22;29973;43.742;1.236;2022-08-03T00:16:33;18.50;99.90
44277;DHT22;29973;43.742;1.236;2022-08-03T00:18:59;18.50;99.90
44277;DHT22;29973;43.742;1.236;2022-08-03T00:21:25;18.40;99.90
44277;DHT22;29973;43.742;1.236;2022-08-03T00:23:51;18.50;99.90
44277;DHT22;29973;43.742;1.236;2022-08-03T00:26:17;18.40;99.90
44277;DHT22;29973;43.742;1.236;2022-08-03T00:28:43;18.30;99.90
44277;DHT22;29973;43.742;1.236;2022-08-03T00:31:09;18.30;99.90
44277;DHT22;29973;43.742;1.236;2022-08-03T00:33:34;18.30;99.90
44277;DHT22;29973;43.742;1.236;2022-08-03T00:36:00;18.30;99.90
44277;DHT22;29973;43.742;1.236;2022-08-03T00:38:26;18.30;99.90
44277;DHT22;29973;43.742;1.236;2022-08-03T00:40:51;18.30;99.90
44277;DHT22;29973;43.742;1.236;2022-08-03T00:43:17;18.30;99.90
44277;DHT22;29973;43.742;1.236;2022-08-03T00:45:43;18.20;99.90
44277;DHT22;29973;43.742;1.236;2022-08-03T00:48:10;18.20;99.90
44277;DHT22;29973;43.742;1.236;2022-08-03T00:50:41;18.10;99.90
44277;DHT22;29973;43.742;1.236;2022-08-03T00:53:10;17.80;99.90
44277;DHT22;29973;43.742;1.236;2022-08-03T00:55:40;17.60;99.90
44277;DHT22;29973;43.742;1.236;2022-08-03T00:58:07;17.60;99.90
44277;DHT22;29973;43.742;1.236;2022-08-03T01:00:37;17.70;99.90
44277;DHT22;29973;43.742;1.236;2022-08-03T01:03:05;17.80;99.90
44277;DHT22;29973;43.742;1.236;2022-08-03T01:05:37;17.70;99.90
44277;DHT22;29973;43.742;1.236;2022-08-03T01:13:40;17.70;99.90
44277;DHT22;29973;43.742;1.236;2022-08-03T01:16:18;17.60;99.90
44277;DHT22;29973;43.742;1.236;2022-08-03T01:18:52;17.50;99.90
44277;DHT22;29973;43.742;1.236;2022-08-03T01:24:34;17.50;99.90
44277;DHT22;29973;43.742;1.236;2022-08-03T01:27:08;17.50;99.90
44277;DHT22;29973;43.742;1.236;2022-08-03T01:32:19;17.40;99.90
44277;DHT22;29973;43.742;1.236;2022-08-03T01:35:07;17.40;99.90
44277;DHT22;29973;43.742;1.236;2022-08-03T01:37:48;17.30;99.90
44277;DHT22;29973;43.742;1.236;2022-08-03T01:40:16;17.30;99.90
44277;DHT22;29973;43.742;1.236;2022-08-03T01:42:44;17.10;99.90
44277;DHT22;29973;43.742;1.236;2022-08-03T01:45:13;17.10;99.90
44277;DHT22;29973;43.742;1.236;2022-08-03T01:47:41;17.20;99.90
44277;DHT22;29973;43.742;1.236;2022-08-03T01:50:10;17.20;99.90
44277;DHT22;29973;43.742;1.236;2022-08-03T01:52:38;17.20;99.90
44277;DHT22;29973;43.742;1.236;2022-08-03T01:55:07;17.00;99.90
44277;DHT22;29973;43.742;1.236;2022-08-03T01:57:35;17.00;99.90
44277;DHT22;29973;43.742;1.236;2022-08-03T02:00:03;17.00;99.90
44277;DHT22;29973;43.742;1.236;2022-08-03T02:02:31;16.90;99.90
44277;DHT22;29973;43.742;1.236;2022-08-03T02:04:59;16.70;99.90
44277;DHT22;29973;43.742;1.236;2022-08-03T02:07:27;16.40;99.90
44277;DHT22;29973;43.742;1.236;2022-08-03T02:09:54;16.50;99.90
44277;DHT22;29973;43.742;1.236;2022-08-03T02:12:23;16.60;99.90
44277;DHT22;29973;43.742;1.236;2022-08-03T02:14:50;16.70;99.90
44277;DHT22;29973;43.742;1.236;2022-08-03T02:17:17;16.50;99.90
44277;DHT22;29973;43.742;1.236;2022-08-03T02:19:44;16.30;99.90
44277;DHT22;29973;43.742;1.236;2022-08-03T02:22:12;16.40;99.90
44277;DHT22;29973;43.742;1.236;2022-08-03T02:24:38;16.40;99.90
44277;DHT22;29973;43.742;1.236;2022-08-03T02:27:09;16.50;99.90
44277;DHT22;29973;43.742;1.236;2022-08-03T02:29:38;16.30;99.90
44277;DHT22;29973;43.742;1.236;2022-08-03T02:32:05;16.10;99.90
44277;DHT22;29973;43.742;1.236;2022-08-03T02:34:34;16.30;99.90
44277;DHT22;29973;43.742;1.236;2022-08-03T02:37:00;16.30;99.90
44277;DHT22;29973;43.742;1.236;2022-08-03T02:39:30;16.20;99.90
44277;DHT22;29973;43.742;1.236;2022-08-03T02:41:58;16.10;99.90
44277;DHT22;29973;43.742;1.236;2022-08-03T02:44:29;16.20;99.90
44277;DHT22;29973;43.742;1.236;2022-08-03T02:47:05;16.10;99.90
44277;DHT22;29973;43.742;1.236;2022-08-03T02:49:33;15.90;99.90
44277;DHT22;29973;43.742;1.236;2022-08-03T02:52:00;16.00;99.90
44277;DHT22;29973;43.742;1.236;2022-08-03T02:54:27;16.00;99.90
44277;DHT22;29973;43.742;1.236;2022-08-03T02:56:55;16.10;99.90
44277;DHT22;29973;43.742;1.236;2022-08-03T02:59:22;16.10;99.90
44277;DHT22;29973;43.742;1.236;2022-08-03T03:01:48;16.10;99.90
44277;DHT22;29973;43.742;1.236;2022-08-03T03:04:15;15.90;99.90
44277;DHT22;29973;43.742;1.236;2022-08-03T03:06:42;15.90;99.90
44277;DHT22;29973;43.742;1.236;2022-08-03T03:09:08;15.90;99.90
44277;DHT22;29973;43.742;1.236;2022-08-03T03:11:37;15.80;99.90
44277;DHT22;29973;43.742;1.236;2022-08-03T03:14:04;15.60;99.90
44277;DHT22;29973;43.742;1.236;2022-08-03T03:16:30;15.50;99.90
44277;DHT22;29973;43.742;1.236;2022-08-03T03:18:57;15.40;99.90
44277;DHT22;29973;43.742;1.236;2022-08-03T03:21:23;15.30;99.90
44277;DHT22;29973;43.742;1.236;2022-08-03T03:23:49;15.40;99.90
44277;DHT22;29973;43.742;1.236;2022-08-03T03:26:17;15.40;99.90
44277;DHT22;29973;43.742;1.236;2022-08-03T03:28:44;15.50;99.90
44277;DHT22;29973;43.742;1.236;2022-08-03T03:31:10;15.60;99.90
44277;DHT22;29973;43.742;1.236;2022-08-03T03:33:36;15.70;99.90
44277;DHT22;29973;43.742;1.236;2022-08-03T03:36:04;15.60;99.90
44277;DHT22;29973;43.742;1.236;2022-08-03T03:38:31;15.70;99.90
44277;DHT22;29973;43.742;1.236;2022-08-03T03:40:57;15.80;99.90
44277;DHT22;29973;43.742;1.236;2022-08-03T03:43:24;15.80;99.90
44277;DHT22;29973;43.742;1.236;2022-08-03T03:45:50;15.60;99.90
44277;DHT22;29973;43.742;1.236;2022-08-03T03:48:18;15.80;99.90
44277;DHT22;29973;43.742;1.236;2022-08-03T03:50:44;16.00;99.90
44277;DHT22;29973;43.742;1.236;2022-08-03T03:53:12;16.20;99.90
44277;DHT22;29973;43.742;1.236;2022-08-03T03:55:38;16.80;99.90
44277;DHT22;29973;43.742;1.236;2022-08-03T03:58:05;16.90;99.90
44277;DHT22;29973;43.742;1.236;2022-08-03T04:00:31;16.60;99.90
44277;DHT22;29973;43.742;1.236;2022-08-03T04:02:56;16.50;99.90
44277;DHT22;29973;43.742;1.236;2022-08-03T04:05:22;16.10;99.90
44277;DHT22;29973;43.742;1.236;2022-08-03T04:08:09;16.00;99.90
44277;DHT22;29973;43.742;1.236;2022-08-03T04:13:38;15.90;99.90
44277;DHT22;29973;43.742;1.236;2022-08-03T04:16:06;15.60;99.90
44277;DHT22;29973;43.742;1.236;2022-08-03T04:18:34;15.60;99.90
44277;DHT22;29973;43.742;1.236;2022-08-03T04:21:03;15.60;99.90
44277;DHT22;29973;43.742;1.236;2022-08-03T04:23:33;15.50;99.90
44277;DHT22;29973;43.742;1.236;2022-08-03T04:26:01;15.60;99.90
44277;DHT22;29973;43.742;1.236;2022-08-03T04:28:29;15.40;99.90
44277;DHT22;29973;43.742;1.236;2022-08-03T04:30:57;15.40;99.90
44277;DHT22;29973;43.742;1.236;2022-08-03T04:33:25;15.40;99.90
44277;DHT22;29973;43.742;1.236;2022-08-03T04:35:53;15.50;99.90
44277;DHT22;29973;43.742;1.236;2022-08-03T04:38:22;15.40;99.90
44277;DHT22;29973;43.742;1.236;2022-08-03T04:40:49;15.50;99.90
44277;DHT22;29973;43.742;1.236;2022-08-03T04:43:16;15.50;99.90
44277;DHT22;29973;43.742;1.236;2022-08-03T04:45:43;15.40;99.90
44277;DHT22;29973;43.742;1.236;2022-08-03T04:48:13;15.40;99.90
44277;DHT22;29973;43.742;1.236;2022-08-03T04:50:40;15.50;99.90
44277;DHT22;29973;43.742;1.236;2022-08-03T04:53:06;15.40;99.90
44277;DHT22;29973;43.742;1.236;2022-08-03T04:55:33;15.30;99.90
44277;DHT22;29973;43.742;1.236;2022-08-03T04:58:01;15.30;99.90
44277;DHT22;29973;43.742;1.236;2022-08-03T05:00:27;15.40;99.90
44277;DHT22;29973;43.742;1.236;2022-08-03T05:02:53;15.40;99.90
44277;DHT22;29973;43.742;1.236;2022-08-03T05:05:20;15.50;99.90
44277;DHT22;29973;43.742;1.236;2022-08-03T05:07:46;15.50;99.90
44277;DHT22;29973;43.742;1.236;2022-08-03T05:10:13;15.60;99.90
44277;DHT22;29973;43.742;1.236;2022-08-03T05:12:39;15.50;99.90
44277;DHT22;29973;43.742;1.236;2022-08-03T05:15:06;15.50;99.90
44277;DHT22;29973;43.742;1.236;2022-08-03T05:17:32;15.40;99.90
44277;DHT22;29973;43.742;1.236;2022-08-03T05:20:01;15.50;99.90
44277;DHT22;29973;43.742;1.236;2022-08-03T05:22:29;15.60;99.90
44277;DHT22;29973;43.742;1.236;2022-08-03T05:24:54;15.70;99.90
44277;DHT22;29973;43.742;1.236;2022-08-03T05:27:20;15.80;99.90
44277;DHT22;29973;43.742;1.236;2022-08-03T05:29:47;15.90;99.90
44277;DHT22;29973;43.742;1.236;2022-08-03T05:32:14;15.90;99.90
44277;DHT22;29973;43.742;1.236;2022-08-03T05:34:39;15.90;99.90
44277;DHT22;29973;43.742;1.236;2022-08-03T05:37:05;15.90;99.90
44277;DHT22;29973;43.742;1.236;2022-08-03T05:39:32;16.10;99.90
44277;DHT22;29973;43.742;1.236;2022-08-03T05:41:58;16.20;99.90
44277;DHT22;29973;43.742;1.236;2022-08-03T05:44:24;16.30;99.90
44277;DHT22;29973;43.742;1.236;2022-08-03T05:46:50;16.30;99.90
44277;DHT22;29973;43.742;1.236;2022-08-03T05:49:16;16.40;99.90
44277;DHT22;29973;43.742;1.236;2022-08-03T05:51:42;16.50;99.90
44277;DHT22;29973;43.742;1.236;2022-08-03T05:54:08;16.60;99.90
44277;DHT22;29973;43.742;1.236;2022-08-03T05:56:34;16.80;99.90
44277;DHT22;29973;43.742;1.236;2022-08-03T05:58:59;17.00;99.90
44277;DHT22;29973;43.742;1.236;2022-08-03T06:01:25;17.10;99.90
44277;DHT22;29973;43.742;1.236;2022-08-03T06:03:51;17.10;99.90
44277;DHT22;29973;43.742;1.236;2022-08-03T06:06:17;17.20;99.90
44277;DHT22;29973;43.742;1.236;2022-08-03T06:08:44;17.30;99.90
44277;DHT22;29973;43.742;1.236;2022-08-03T06:11:10;17.50;99.90
44277;DHT22;29973;43.742;1.236;2022-08-03T06:13:36;17.60;99.90
44277;DHT22;29973;43.742;1.236;2022-08-03T06:16:02;17.80;99.90
44277;DHT22;29973;43.742;1.236;2022-08-03T06:18:28;18.00;99.90
44277;DHT22;29973;43.742;1.236;2022-08-03T06:20:54;18.10;99.90
44277;DHT22;29973;43.742;1.236;2022-08-03T06:23:20;18.30;99.90
44277;DHT22;29973;43.742;1.236;2022-08-03T06:25:46;18.50;99.90
44277;DHT22;29973;43.742;1.236;2022-08-03T06:28:12;18.70;99.90
44277;DHT22;29973;43.742;1.236;2022-08-03T06:30:43;18.90;99.90
44277;DHT22;29973;43.742;1.236;2022-08-03T06:33:08;19.10;99.90
44277;DHT22;29973;43.742;1.236;2022-08-03T06:35:34;19.30;99.90
44277;DHT22;29973;43.742;1.236;2022-08-03T06:38:00;19.40;99.90
44277;DHT22;29973;43.742;1.236;2022-08-03T06:40:26;19.60;99.90
44277;DHT22;29973;43.742;1.236;2022-08-03T06:43:01;19.80;99.90
44277;DHT22;29973;43.742;1.236;2022-08-03T06:45:27;20.00;99.90
44277;DHT22;29973;43.742;1.236;2022-08-03T06:48:00;20.20;99.90
44277;DHT22;29973;43.742;1.236;2022-08-03T06:50:27;20.50;99.90
44277;DHT22;29973;43.742;1.236;2022-08-03T06:52:52;20.60;99.90
44277;DHT22;29973;43.742;1.236;2022-08-03T06:55:18;20.70;99.90
44277;DHT22;29973;43.742;1.236;2022-08-03T06:57:44;20.80;99.90
44277;DHT22;29973;43.742;1.236;2022-08-03T07:00:10;21.00;99.90
44277;DHT22;29973;43.742;1.236;2022-08-03T07:02:36;21.10;99.90
44277;DHT22;29973;43.742;1.236;2022-08-03T07:05:03;21.40;99.90
44277;DHT22;29973;43.742;1.236;2022-08-03T07:07:29;21.60;99.90
44277;DHT22;29973;43.742;1.236;2022-08-03T07:09:54;21.70;99.90
44277;DHT22;29973;43.742;1.236;2022-08-03T07:12:20;21.80;99.90
44277;DHT22;29973;43.742;1.236;2022-08-03T07:14:46;22.10;99.90
44277;DHT22;29973;43.742;1.236;2022-08-03T07:17:12;22.30;99.90
44277;DHT22;29973;43.742;1.236;2022-08-03T07:19:37;22.50;99.90
44277;DHT22;29973;43.742;1.236;2022-08-03T07:22:03;22.90;99.90
44277;DHT22;29973;43.742;1.236;2022-08-03T07:24:29;23.10;99.90
44277;DHT22;29973;43.742;1.236;2022-08-03T07:26:55;23.40;99.90
44277;DHT22;29973;43.742;1.236;2022-08-03T07:29:21;24.20;99.90
44277;DHT22;29973;43.742;1.236;2022-08-03T07:31:46;24.80;99.90
44277;DHT22;29973;43.742;1.236;2022-08-03T07:34:17;25.00;99.90
44277;DHT22;29973;43.742;1.236;2022-08-03T07:36:43;25.30;99.90
44277;DHT22;29973;43.742;1.236;2022-08-03T07:39:09;25.30;99.90
44277;DHT22;29973;43.742;1.236;2022-08-03T07:41:35;25.50;99.90
44277;DHT22;29973;43.742;1.236;2022-08-03T07:44:02;25.60;99.90
44277;DHT22;29973;43.742;1.236;2022-08-03T07:46:28;25.70;99.90
44277;DHT22;29973;43.742;1.236;2022-08-03T07:48:53;26.00;99.90
44277;DHT22;29973;43.742;1.236;2022-08-03T07:51:19;25.90;99.90
44277;DHT22;29973;43.742;1.236;2022-08-03T07:53:45;25.90;99.90
44277;DHT22;29973;43.742;1.236;2022-08-03T07:56:11;26.20;99.90
44277;DHT22;29973;43.742;1.236;2022-08-03T07:58:37;26.50;99.90
44277;DHT22;29973;43.742;1.236;2022-08-03T08:01:02;26.40;99.90
44277;DHT22;29973;43.742;1.236;2022-08-03T08:03:28;26.70;99.90
44277;DHT22;29973;43.742;1.236;2022-08-03T08:05:54;26.70;99.90
44277;DHT22;29973;43.742;1.236;2022-08-03T08:08:20;26.80;99.90
44277;DHT22;29973;43.742;1.236;2022-08-03T08:10:46;27.10;99.90
44277;DHT22;29973;43.742;1.236;2022-08-03T08:13:12;26.90;99.90
44277;DHT22;29973;43.742;1.236;2022-08-03T08:15:38;27.10;99.90
44277;DHT22;29973;43.742;1.236;2022-08-03T08:18:04;27.50;99.90
44277;DHT22;29973;43.742;1.236;2022-08-03T08:20:34;27.50;99.90
44277;DHT22;29973;43.742;1.236;2022-08-03T08:23:08;27.90;99.90
44277;DHT22;29973;43.742;1.236;2022-08-03T08:25:34;27.80;99.90
44277;DHT22;29973;43.742;1.236;2022-08-03T08:28:00;28.00;99.90
44277;DHT22;29973;43.742;1.236;2022-08-03T08:30:27;28.30;99.90
44277;DHT22;29973;43.742;1.236;2022-08-03T08:32:53;28.20;99.90
44277;DHT22;29973;43.742;1.236;2022-08-03T08:35:19;28.40;99.90
44277;DHT22;29973;43.742;1.236;2022-08-03T08:37:46;28.30;99.90
44277;DHT22;29973;43.742;1.236;2022-08-03T08:40:12;28.30;99.90
44277;DHT22;29973;43.742;1.236;2022-08-03T08:42:42;28.40;99.90
44277;DHT22;29973;43.742;1.236;2022-08-03T08:45:09;28.60;99.80
44277;DHT22;29973;43.742;1.236;2022-08-03T08:47:38;29.10;99.90
44277;DHT22;29973;43.742;1.236;2022-08-03T08:50:06;29.30;98.40
44277;DHT22;29973;43.742;1.236;2022-08-03T08:52:33;29.10;97.30
44277;DHT22;29973;43.742;1.236;2022-08-03T08:55:01;29.00;97.80
44277;DHT22;29973;43.742;1.236;2022-08-03T08:57:43;29.00;97.90
44277;DHT22;29973;43.742;1.236;2022-08-03T09:00:10;29.20;97.50
44277;DHT22;29973;43.742;1.236;2022-08-03T09:02:41;29.30;97.20
44277;DHT22;29973;43.742;1.236;2022-08-03T09:05:09;29.50;96.10
44277;DHT22;29973;43.742;1.236;2022-08-03T09:07:38;29.80;97.70
44277;DHT22;29973;43.742;1.236;2022-08-03T09:10:05;30.20;96.80
44277;DHT22;29973;43.742;1.236;2022-08-03T09:12:40;30.00;95.30
44277;DHT22;29973;43.742;1.236;2022-08-03T09:15:20;30.10;95.50
44277;DHT22;29973;43.742;1.236;2022-08-03T09:17:47;30.10;95.60
44277;DHT22;29973;43.742;1.236;2022-08-03T09:20:13;30.20;95.00
44277;DHT22;29973;43.742;1.236;2022-08-03T09:25:41;30.70;94.60
44277;DHT22;29973;43.742;1.236;2022-08-03T09:28:11;31.20;94.30
44277;DHT22;29973;43.742;1.236;2022-08-03T09:30:39;31.40;93.80
44277;DHT22;29973;43.742;1.236;2022-08-03T09:33:07;31.20;92.70
44277;DHT22;29973;43.742;1.236;2022-08-03T09:35:42;31.20;93.50
44277;DHT22;29973;43.742;1.236;2022-08-03T09:38:16;31.40;95.40
44277;DHT22;29973;43.742;1.236;2022-08-03T09:40:43;31.70;94.10
44277;DHT22;29973;43.742;1.236;2022-08-03T09:43:10;31.90;92.50
44277;DHT22;29973;43.742;1.236;2022-08-03T09:45:37;32.10;92.30
44277;DHT22;29973;43.742;1.236;2022-08-03T09:48:23;32.20;91.70
44277;DHT22;29973;43.742;1.236;2022-08-03T09:50:59;32.00;90.60
44277;DHT22;29973;43.742;1.236;2022-08-03T09:53:26;31.90;90.00
44277;DHT22;29973;43.742;1.236;2022-08-03T09:56:01;31.70;90.80
44277;DHT22;29973;43.742;1.236;2022-08-03T09:58:28;31.40;90.40
44277;DHT22;29973;43.742;1.236;2022-08-03T10:01:00;31.40;90.30
44277;DHT22;29973;43.742;1.236;2022-08-03T10:03:28;31.60;90.50
44277;DHT22;29973;43.742;1.236;2022-08-03T10:05:54;31.90;90.10
44277;DHT22;29973;43.742;1.236;2022-08-03T10:08:20;32.30;89.70
44277;DHT22;29973;43.742;1.236;2022-08-03T10:10:48;32.70;90.70
44277;DHT22;29973;43.742;1.236;2022-08-03T10:13:16;32.80;88.30
44277;DHT22;29973;43.742;1.236;2022-08-03T10:15:42;32.90;86.60
44277;DHT22;29973;43.742;1.236;2022-08-03T10:18:08;33.10;86.00
44277;DHT22;29973;43.742;1.236;2022-08-03T10:20:44;33.00;85.90
44277;DHT22;29973;43.742;1.236;2022-08-03T10:23:11;32.80;82.70
44277;DHT22;29973;43.742;1.236;2022-08-03T10:25:39;33.00;82.00
44277;DHT22;29973;43.742;1.236;2022-08-03T10:28:05;33.20;82.90
44277;DHT22;29973;43.742;1.236;2022-08-03T10:30:33;33.40;81.10
44277;DHT22;29973;43.742;1.236;2022-08-03T10:33:10;33.30;81.90
44277;DHT22;29973;43.742;1.236;2022-08-03T10:35:39;33.60;80.50
44277;DHT22;29973;43.742;1.236;2022-08-03T10:38:09;33.50;79.50
44277;DHT22;29973;43.742;1.236;2022-08-03T10:40:37;33.50;81.50
44277;DHT22;29973;43.742;1.236;2022-08-03T10:43:11;33.60;80.20
44277;DHT22;29973;43.742;1.236;2022-08-03T10:45:43;34.00;80.60
44277;DHT22;29973;43.742;1.236;2022-08-03T10:48:11;34.30;77.30
44277;DHT22;29973;43.742;1.236;2022-08-03T10:50:37;34.60;76.50
44277;DHT22;29973;43.742;1.236;2022-08-03T10:53:05;34.80;75.50
44277;DHT22;29973;43.742;1.236;2022-08-03T10:55:39;35.00;75.20
44277;DHT22;29973;43.742;1.236;2022-08-03T11:01:07;34.50;72.90
44277;DHT22;29973;43.742;1.236;2022-08-03T11:03:33;34.40;70.20
44277;DHT22;29973;43.742;1.236;2022-08-03T11:06:17;34.10;72.20
44277;DHT22;29973;43.742;1.236;2022-08-03T11:08:44;34.00;70.30
44277;DHT22;29973;43.742;1.236;2022-08-03T11:14:10;34.80;66.10
44277;DHT22;29973;43.742;1.236;2022-08-03T11:16:52;35.40;66.50
44277;DHT22;29973;43.742;1.236;2022-08-03T11:19:45;35.50;64.70
44277;DHT22;29973;43.742;1.236;2022-08-03T11:22:15;35.40;63.40
44277;DHT22;29973;43.742;1.236;2022-08-03T11:30:05;36.40;63.20
44277;DHT22;29973;43.742;1.236;2022-08-03T11:40:44;39.80;48.90
44277;DHT22;29973;43.742;1.236;2022-08-03T11:46:09;40.10;50.30
44277;DHT22;29973;43.742;1.236;2022-08-03T11:48:48;40.60;46.00
44277;DHT22;29973;43.742;1.236;2022-08-03T11:51:27;40.40;46.30
44277;DHT22;29973;43.742;1.236;2022-08-03T11:53:54;41.30;44.90
44277;DHT22;29973;43.742;1.236;2022-08-03T11:56:21;41.50;43.40
44277;DHT22;29973;43.742;1.236;2022-08-03T11:58:50;39.80;43.60
44277;DHT22;29973;43.742;1.236;2022-08-03T12:01:18;39.60;44.00
44277;DHT22;29973;43.742;1.236;2022-08-03T12:03:45;40.40;42.60
44277;DHT22;29973;43.742;1.236;2022-08-03T12:06:12;41.50;43.00
44277;DHT22;29973;43.742;1.236;2022-08-03T12:08:39;41.90;42.20
44277;DHT22;29973;43.742;1.236;2022-08-03T12:11:07;42.60;42.30
44277;DHT22;29973;43.742;1.236;2022-08-03T12:13:44;41.50;40.50
44277;DHT22;29973;43.742;1.236;2022-08-03T12:16:22;42.10;40.50
44277;DHT22;29973;43.742;1.236;2022-08-03T12:19:14;42.50;36.40
44277;DHT22;29973;43.742;1.236;2022-08-03T12:21:47;41.90;37.70
44277;DHT22;29973;43.742;1.236;2022-08-03T12:24:13;41.80;40.10
44277;DHT22;29973;43.742;1.236;2022-08-03T12:26:48;40.50;39.80
44277;DHT22;29973;43.742;1.236;2022-08-03T12:29:17;41.30;42.20
44277;DHT22;29973;43.742;1.236;2022-08-03T12:31:43;43.20;36.90
44277;DHT22;29973;43.742;1.236;2022-08-03T12:34:09;43.50;37.00
44277;DHT22;29973;43.742;1.236;2022-08-03T12:36:36;44.40;37.30
44277;DHT22;29973;43.742;1.236;2022-08-03T12:39:08;41.30;35.90
44277;DHT22;29973;43.742;1.236;2022-08-03T12:41:38;40.00;39.40
44277;DHT22;29973;43.742;1.236;2022-08-03T12:44:08;40.70;37.10
44277;DHT22;29973;43.742;1.236;2022-08-03T12:46:37;40.30;34.70
44277;DHT22;29973;43.742;1.236;2022-08-03T12:49:14;41.00;34.70
44277;DHT22;29973;43.742;1.236;2022-08-03T12:54:07;41.90;34.60
44277;DHT22;29973;43.742;1.236;2022-08-03T12:56:33;42.10;35.20
44277;DHT22;29973;43.742;1.236;2022-08-03T12:59:00;41.60;35.70
44277;DHT22;29973;43.742;1.236;2022-08-03T13:01:26;41.90;35.50
44277;DHT22;29973;43.742;1.236;2022-08-03T13:04:00;41.10;36.50
44277;DHT22;29973;43.742;1.236;2022-08-03T13:06:26;42.00;34.20
44277;DHT22;29973;43.742;1.236;2022-08-03T13:09:06;43.20;34.50
44277;DHT22;29973;43.742;1.236;2022-08-03T13:11:32;42.40;32.80
44277;DHT22;29973;43.742;1.236;2022-08-03T13:13:58;42.00;32.00
44277;DHT22;29973;43.742;1.236;2022-08-03T13:16:24;42.20;32.80
44277;DHT22;29973;43.742;1.236;2022-08-03T13:18:50;42.30;30.90
44277;DHT22;29973;43.742;1.236;2022-08-03T13:21:19;41.40;33.00
44277;DHT22;29973;43.742;1.236;2022-08-03T13:23:45;42.40;33.70
44277;DHT22;29973;43.742;1.236;2022-08-03T13:26:11;42.80;30.80
44277;DHT22;29973;43.742;1.236;2022-08-03T13:28:38;42.40;33.10
44277;DHT22;29973;43.742;1.236;2022-08-03T13:31:04;43.40;32.40
44277;DHT22;29973;43.742;1.236;2022-08-03T13:33:30;43.60;32.40
44277;DHT22;29973;43.742;1.236;2022-08-03T13:35:56;43.60;31.00
44277;DHT22;29973;43.742;1.236;2022-08-03T13:38:22;43.10;33.60
44277;DHT22;29973;43.742;1.236;2022-08-03T13:40:50;43.70;30.20
44277;DHT22;29973;43.742;1.236;2022-08-03T13:43:16;43.20;30.00
44277;DHT22;29973;43.742;1.236;2022-08-03T13:45:42;43.60;31.10
44277;DHT22;29973;43.742;1.236;2022-08-03T13:48:07;44.40;32.00
44277;DHT22;29973;43.742;1.236;2022-08-03T13:50:33;44.30;29.80
44277;DHT22;29973;43.742;1.236;2022-08-03T13:52:59;44.00;29.20
44277;DHT22;29973;43.742;1.236;2022-08-03T13:55:24;42.70;29.80
44277;DHT22;29973;43.742;1.236;2022-08-03T13:57:50;44.30;31.80
44277;DHT22;29973;43.742;1.236;2022-08-03T14:00:17;45.30;28.80
44277;DHT22;29973;43.742;1.236;2022-08-03T14:02:43;44.10;30.70
44277;DHT22;29973;43.742;1.236;2022-08-03T14:05:09;43.70;30.70
44277;DHT22;29973;43.742;1.236;2022-08-03T14:07:35;45.90;28.10
44277;DHT22;29973;43.742;1.236;2022-08-03T14:10:01;46.20;27.30
44277;DHT22;29973;43.742;1.236;2022-08-03T14:12:27;47.40;28.40
44277;DHT22;29973;43.742;1.236;2022-08-03T14:14:54;45.60;30.00
44277;DHT22;29973;43.742;1.236;2022-08-03T14:17:19;45.40;30.20
44277;DHT22;29973;43.742;1.236;2022-08-03T14:19:45;45.70;29.80
44277;DHT22;29973;43.742;1.236;2022-08-03T14:22:11;46.30;29.50
44277;DHT22;29973;43.742;1.236;2022-08-03T14:24:36;45.70;29.40
44277;DHT22;29973;43.742;1.236;2022-08-03T14:27:02;44.80;29.40
44277;DHT22;29973;43.742;1.236;2022-08-03T14:29:28;44.90;30.00
44277;DHT22;29973;43.742;1.236;2022-08-03T14:31:53;44.60;31.20
44277;DHT22;29973;43.742;1.236;2022-08-03T14:34:19;44.90;30.40
44277;DHT22;29973;43.742;1.236;2022-08-03T14:36:45;45.80;29.90
44277;DHT22;29973;43.742;1.236;2022-08-03T14:39:12;46.40;29.50
44277;DHT22;29973;43.742;1.236;2022-08-03T14:41:38;45.40;29.30
44277;DHT22;29973;43.742;1.236;2022-08-03T14:44:04;44.10;29.20
44277;DHT22;29973;43.742;1.236;2022-08-03T14:46:30;44.50;30.20
44277;DHT22;29973;43.742;1.236;2022-08-03T14:48:56;45.90;28.90
44277;DHT22;29973;43.742;1.236;2022-08-03T14:51:23;46.70;27.80
44277;DHT22;29973;43.742;1.236;2022-08-03T14:53:49;48.10;27.50
44277;DHT22;29973;43.742;1.236;2022-08-03T14:56:14;48.50;27.70
44277;DHT22;29973;43.742;1.236;2022-08-03T14:58:40;48.60;26.30
44277;DHT22;29973;43.742;1.236;2022-08-03T15:01:06;49.00;27.30
44277;DHT22;29973;43.742;1.236;2022-08-03T15:03:32;48.90;25.50
44277;DHT22;29973;43.742;1.236;2022-08-03T15:05:58;48.50;27.10
44277;DHT22;29973;43.742;1.236;2022-08-03T15:08:25;48.80;27.30
44277;DHT22;29973;43.742;1.236;2022-08-03T15:10:54;49.10;25.90
44277;DHT22;29973;43.742;1.236;2022-08-03T15:13:20;48.40;26.50
44277;DHT22;29973;43.742;1.236;2022-08-03T15:15:47;47.20;26.40
44277;DHT22;29973;43.742;1.236;2022-08-03T15:18:13;47.00;26.00
44277;DHT22;29973;43.742;1.236;2022-08-03T15:20:38;48.30;26.10
44277;DHT22;29973;43.742;1.236;2022-08-03T15:23:04;48.10;26.30
44277;DHT22;29973;43.742;1.236;2022-08-03T15:25:30;45.80;27.30
44277;DHT22;29973;43.742;1.236;2022-08-03T15:27:55;45.50;28.30
44277;DHT22;29973;43.742;1.236;2022-08-03T15:30:21;46.90;26.00
44277;DHT22;29973;43.742;1.236;2022-08-03T15:32:47;48.60;27.80
44277;DHT22;29973;43.742;1.236;2022-08-03T15:35:13;49.20;26.00
44277;DHT22;29973;43.742;1.236;2022-08-03T15:37:38;48.20;25.20
44277;DHT22;29973;43.742;1.236;2022-08-03T15:40:04;47.00;25.10
44277;DHT22;29973;43.742;1.236;2022-08-03T15:42:31;45.60;28.00
44277;DHT22;29973;43.742;1.236;2022-08-03T15:44:58;44.80;27.70
44277;DHT22;29973;43.742;1.236;2022-08-03T15:47:24;45.00;28.40
44277;DHT22;29973;43.742;1.236;2022-08-03T15:49:50;46.40;26.80
44277;DHT22;29973;43.742;1.236;2022-08-03T15:52:15;46.70;26.10
44277;DHT22;29973;43.742;1.236;2022-08-03T15:54:41;46.30;26.60
44277;DHT22;29973;43.742;1.236;2022-08-03T15:57:07;45.90;27.10
44277;DHT22;29973;43.742;1.236;2022-08-03T15:59:32;45.00;26.50
44277;DHT22;29973;43.742;1.236;2022-08-03T16:01:58;44.80;26.20
44277;DHT22;29973;43.742;1.236;2022-08-03T16:04:24;45.50;26.40
44277;DHT22;29973;43.742;1.236;2022-08-03T16:06:49;47.10;26.60
44277;DHT22;29973;43.742;1.236;2022-08-03T16:09:15;47.10;24.90
44277;DHT22;29973;43.742;1.236;2022-08-03T16:11:41;46.10;26.50
44277;DHT22;29973;43.742;1.236;2022-08-03T16:14:07;46.80;27.10
44277;DHT22;29973;43.742;1.236;2022-08-03T16:16:32;47.30;24.10